createdAt,value
2018-12-04T00:04:33.620Z,2.4
2018-12-04T00:09:56.567Z,2.4
2018-12-04T00:15:19.300Z,2.4
2018-12-04T00:20:42.121Z,2.6
2018-12-04T00:26:04.750Z,2.1
2018-12-04T00:31:27.962Z,2.2
2018-12-04T00:36:50.610Z,2.1
2018-12-04T00:42:13.768Z,2.3
2018-12-04T00:47:36.475Z,2.3
2018-12-04T00:52:59.124Z,2.3
2018-12-04T00:58:21.859Z,2.1
2018-12-04T01:03:44.493Z,2.1
2018-12-04T01:09:07.146Z,2.4
2018-12-04T01:14:29.902Z,2.8
2018-12-04T01:19:53.229Z,2.4
2018-12-04T01:25:15.868Z,2.3
2018-12-04T01:30:39.352Z,2.2
2018-12-04T01:36:02.148Z,2.5
2018-12-04T01:41:24.799Z,2.3
2018-12-04T01:46:47.431Z,2.3
2018-12-04T01:52:10.063Z,2.3
2018-12-04T01:57:32.729Z,1.9
2018-12-04T02:03:02.415Z,2
2018-12-04T02:08:25.027Z,2.6
2018-12-04T02:13:47.651Z,2.6
2018-12-04T02:19:10.299Z,2.5
2018-12-04T02:24:32.961Z,2.4
2018-12-04T02:29:55.731Z,2.6
2018-12-04T02:35:18.465Z,2.3
2018-12-04T02:40:41.140Z,2.4
2018-12-04T02:46:03.812Z,1.9
2018-12-04T02:51:26.730Z,2.6
2018-12-04T02:56:49.664Z,2
2018-12-04T03:02:12.463Z,2.2
2018-12-04T03:07:35.188Z,1.9
2018-12-04T03:12:57.812Z,2.3
2018-12-04T03:18:20.486Z,2.4
2018-12-04T03:23:42.260Z,2.3
2018-12-04T03:29:04.982Z,2.5
2018-12-04T03:34:27.696Z,2
2018-12-04T03:39:50.944Z,1.8
2018-12-04T03:45:13.644Z,2.1
2018-12-04T03:50:36.425Z,2.2
2018-12-04T03:55:59.062Z,2.3
2018-12-04T04:01:21.825Z,2.5
2018-12-04T04:06:44.685Z,2.2
2018-12-04T04:12:07.429Z,2.1
2018-12-04T04:17:30.051Z,2
2018-12-04T04:22:52.698Z,1.8
2018-12-04T04:28:15.341Z,1.9
2018-12-04T04:33:38.028Z,2.4
2018-12-04T04:39:01.963Z,2.3
2018-12-04T04:44:24.372Z,2.2
2018-12-04T04:49:50.150Z,2
2018-12-04T04:55:12.806Z,2.4
2018-12-04T05:00:35.645Z,1.9
2018-12-04T05:05:58.398Z,2.5
2018-12-04T05:11:21.309Z,2.4
2018-12-04T05:16:44.027Z,2
2018-12-04T05:22:06.671Z,2.5
2018-12-04T05:27:29.571Z,2.2
2018-12-04T05:32:52.489Z,2.6
2018-12-04T05:38:15.280Z,2.5
2018-12-04T05:43:37.923Z,2.5
2018-12-04T05:49:01.636Z,2.7
2018-12-04T05:54:26.840Z,2.3
2018-12-04T05:59:49.323Z,2.6
2018-12-04T06:05:12.156Z,2.7
2018-12-04T06:10:35.103Z,2.5
2018-12-04T06:15:58.487Z,2.4
2018-12-04T06:21:21.160Z,3.4
2018-12-04T06:26:43.870Z,2.5
2018-12-04T06:32:06.533Z,8.2
2018-12-04T06:37:30.020Z,12.2
2018-12-04T06:42:52.700Z,3.1
2018-12-04T06:48:17.207Z,2.8
2018-12-04T06:53:41.008Z,2.5
2018-12-04T06:59:03.752Z,2.6
2018-12-04T07:04:26.564Z,2.2
2018-12-04T07:09:49.271Z,2.6
2018-12-04T07:15:12.851Z,2.6
2018-12-04T07:20:36.347Z,2.8
2018-12-04T07:26:03.316Z,3.1
2018-12-04T07:31:26.672Z,3.2
2018-12-04T07:36:49.353Z,2.9
2018-12-04T07:42:13.113Z,2.5
2018-12-04T07:47:36.557Z,2.5
2018-12-04T07:52:59.243Z,3.1
2018-12-04T07:58:21.915Z,3.1
2018-12-04T08:03:44.662Z,3.7
2018-12-04T08:09:07.470Z,3.5
2018-12-04T08:14:30.179Z,3.2
2018-12-04T08:19:59.220Z,2.9
2018-12-04T08:25:21.893Z,3.1
2018-12-04T08:30:44.527Z,3.1
2018-12-04T08:36:07.179Z,3.6
2018-12-04T08:41:30.799Z,3.8
2018-12-04T08:46:54.267Z,2.7
2018-12-04T08:52:16.948Z,3.3
2018-12-04T08:57:39.764Z,3.1
2018-12-04T09:03:03.916Z,2.9
2018-12-04T09:08:26.666Z,3.1
2018-12-04T09:13:50.034Z,3
2018-12-04T09:19:13.810Z,2.6
2018-12-04T09:24:36.460Z,2.5
2018-12-04T09:29:59.247Z,2.4
2018-12-04T09:35:22.548Z,2.4
2018-12-04T09:40:45.316Z,3.1
2018-12-04T09:46:08.131Z,2.5
2018-12-04T09:51:31.324Z,2.3
2018-12-04T09:56:57.257Z,2.1
2018-12-04T10:02:20.389Z,2.3
2018-12-04T10:07:43.067Z,2.3
2018-12-04T10:13:06.173Z,1.8
2018-12-04T10:18:29.352Z,2.2
2018-12-04T10:23:52.136Z,2.1
2018-12-04T10:29:15.208Z,2.3
2018-12-04T10:34:37.834Z,2.1
2018-12-04T10:40:00.562Z,2.3
2018-12-04T10:45:23.269Z,2.1
2018-12-04T10:50:46.034Z,2.2
2018-12-04T10:56:08.747Z,2
2018-12-04T11:01:31.418Z,2.2
2018-12-04T11:06:54.136Z,2.5
2018-12-04T11:12:16.811Z,2.6
2018-12-04T11:17:39.697Z,2.1
2018-12-04T11:23:02.339Z,2.3
2018-12-04T11:28:26.048Z,2.1
2018-12-04T11:33:48.683Z,2.3
2018-12-04T11:39:11.436Z,1.9
2018-12-04T11:44:34.786Z,2.2
2018-12-04T11:49:57.435Z,1.7
2018-12-04T11:55:20.237Z,2.7
2018-12-04T12:00:43.049Z,2.3
2018-12-04T12:06:05.805Z,2.1
2018-12-04T12:11:28.520Z,2.1
2018-12-04T12:16:51.204Z,1.9
2018-12-04T12:22:14.866Z,2.4
2018-12-04T12:27:37.683Z,2.2
2018-12-04T12:33:00.455Z,1.9
2018-12-04T12:38:23.073Z,2.1
2018-12-04T12:43:46.690Z,2.2
2018-12-04T12:49:09.391Z,2.2
2018-12-04T12:54:32.014Z,2.1
2018-12-04T12:59:54.684Z,1.9
2018-12-04T13:05:17.314Z,2.1
2018-12-04T13:10:40.228Z,1.8
2018-12-04T13:16:03.389Z,1.9
2018-12-04T13:21:26.055Z,2.7
2018-12-04T13:26:48.726Z,2.9
2018-12-04T13:32:11.418Z,2.4
2018-12-04T13:37:34.088Z,2.5
2018-12-04T13:42:57.000Z,2.6
2018-12-04T13:48:19.799Z,2
2018-12-04T13:53:42.516Z,1.9
2018-12-04T13:59:05.239Z,1.9
2018-12-04T14:04:30.114Z,2.1
2018-12-04T14:09:52.788Z,1.7
2018-12-04T14:15:15.415Z,1.8
2018-12-04T14:20:38.180Z,1.6
2018-12-04T14:26:01.979Z,1.9
2018-12-04T14:31:24.776Z,2.2
2018-12-04T14:36:47.574Z,2.8
2018-12-04T14:42:11.288Z,2
2018-12-04T14:47:34.026Z,2.3
2018-12-04T14:52:56.686Z,2
2018-12-04T14:58:19.441Z,2.5
2018-12-04T15:03:42.118Z,2.8
2018-12-04T15:09:04.963Z,2.9
2018-12-04T15:14:27.718Z,2.2
2018-12-04T15:19:50.570Z,2.3
2018-12-04T15:25:14.275Z,2.2
2018-12-04T15:30:36.995Z,2.2
2018-12-04T15:35:59.741Z,2.5
2018-12-04T15:41:22.421Z,2.8
2018-12-04T15:46:45.151Z,3
2018-12-04T15:52:07.883Z,3.2
2018-12-04T15:57:30.586Z,3.1
2018-12-04T16:02:53.258Z,3.1
2018-12-04T16:08:15.970Z,3.2
2018-12-04T16:13:38.621Z,2.6
2018-12-04T16:19:01.322Z,2.5
2018-12-04T16:24:25.038Z,2.9
2018-12-04T16:29:47.726Z,3
2018-12-04T16:35:10.412Z,3.3
2018-12-04T16:40:33.115Z,2.8
2018-12-04T16:45:55.816Z,2.7
2018-12-04T16:51:18.588Z,2.6
2018-12-04T16:56:41.288Z,2.5
2018-12-04T17:02:03.969Z,3
2018-12-04T17:07:26.664Z,2.7
2018-12-04T17:12:49.629Z,3.1
2018-12-04T17:18:12.149Z,3.2
2018-12-04T17:23:34.822Z,3.3
2018-12-04T17:28:57.507Z,3.2
2018-12-04T17:34:20.248Z,3.1
2018-12-04T17:39:42.898Z,2.7
2018-12-04T17:45:05.699Z,2.8
2018-12-04T17:50:28.382Z,3.1
2018-12-04T17:55:51.221Z,2.9
2018-12-04T18:01:14.046Z,2.5
2018-12-04T18:06:37.641Z,3
2018-12-04T18:12:00.353Z,2.6
2018-12-04T18:17:23.397Z,2.9
2018-12-04T18:22:46.092Z,2.4
2018-12-04T18:28:08.957Z,2.9
2018-12-04T18:33:31.600Z,2.9
2018-12-04T18:38:54.551Z,2.2
2018-12-04T18:44:17.201Z,2.8
2018-12-04T18:49:39.908Z,3.2
2018-12-04T18:55:02.673Z,3.1
2018-12-04T19:00:25.363Z,3.2
2018-12-04T19:05:48.054Z,2.8
2018-12-04T19:11:10.733Z,3
2018-12-04T19:16:33.535Z,2.7
2018-12-04T19:21:56.289Z,4.1
2018-12-04T19:27:19.365Z,4
2018-12-04T19:32:42.392Z,3.9
2018-12-04T19:38:05.612Z,4.2
2018-12-04T19:43:28.935Z,4.8
2018-12-04T19:48:51.614Z,4.9
2018-12-04T19:54:15.274Z,5.4
2018-12-04T19:59:49.082Z,5.2
2018-12-04T20:05:17.789Z,5.3
2018-12-04T20:10:41.259Z,5.1
2018-12-04T20:16:22.219Z,5
2018-12-04T20:22:04.564Z,5.5
2018-12-04T20:27:28.844Z,6.1
2018-12-04T20:33:00.694Z,8.5
2018-12-04T20:38:36.996Z,10.3
2018-12-04T20:43:59.673Z,8.2
2018-12-04T20:49:23.370Z,8.4
2018-12-04T20:54:46.228Z,8.4
2018-12-04T21:00:10.702Z,8.4
2018-12-04T21:05:34.692Z,7.6
2018-12-04T21:10:57.360Z,8.9
2018-12-04T21:16:20.250Z,7.2
2018-12-04T21:21:44.873Z,9.3
2018-12-04T21:27:11.550Z,8.5
2018-12-04T21:32:30.151Z,8.5
2018-12-04T21:37:52.992Z,10.3
2018-12-04T21:43:16.172Z,9.9
2018-12-04T21:48:39.028Z,12.6
2018-12-04T21:54:01.721Z,11.1
2018-12-04T21:59:24.437Z,9.8
2018-12-04T22:04:47.265Z,8.9
2018-12-04T22:10:10.280Z,10.4
2018-12-04T22:15:33.016Z,10.3
2018-12-04T22:20:55.849Z,10.6
2018-12-04T22:26:18.591Z,11.2
2018-12-04T22:31:41.247Z,12.5
2018-12-04T22:37:03.957Z,11.2
2018-12-04T22:42:27.306Z,11.9
2018-12-04T22:47:50.194Z,12.3
2018-12-04T22:53:12.875Z,13
2018-12-04T22:58:35.568Z,13.1
2018-12-04T23:03:58.278Z,13.3
2018-12-04T23:09:22.099Z,10.5
2018-12-04T23:14:44.860Z,15
2018-12-04T23:20:07.635Z,12.4
2018-12-04T23:25:30.306Z,14.1
2018-12-04T23:30:53.059Z,12.1
2018-12-04T23:36:15.872Z,15.4
2018-12-04T23:41:38.696Z,17.700001
2018-12-04T23:47:01.316Z,15
2018-12-04T23:52:24.053Z,19.4
2018-12-04T23:57:46.945Z,21.6
